sensor_id;sensor_type;location;lat;lon;timestamp;temperature;humidity
51613;DHT22;37694;51.748;14.326;2023-06-14T00:01:24;25.00;41.90
51613;DHT22;37694;51.748;14.326;2023-06-14T00:03:50;25.00;41.90
51613;DHT22;37694;51.748;14.326;2023-06-14T00:06:16;25.00;42.10
51613;DHT22;37694;51.748;14.326;2023-06-14T00:08:42;25.00;42.20
51613;DHT22;37694;51.748;14.326;2023-06-14T00:11:09;25.00;42.30
51613;DHT22;37694;51.748;14.326;2023-06-14T00:13:34;25.00;42.00
51613;DHT22;37694;51.748;14.326;2023-06-14T00:16:00;25.00;42.20
51613;DHT22;37694;51.748;14.326;2023-06-14T00:18:26;25.00;42.20
51613;DHT22;37694;51.748;14.326;2023-06-14T00:20:55;25.10;42.30
51613;DHT22;37694;51.748;14.326;2023-06-14T00:23:21;25.00;42.30
51613;DHT22;37694;51.748;14.326;2023-06-14T00:25:47;25.00;42.40
51613;DHT22;37694;51.748;14.326;2023-06-14T00:28:12;25.00;42.40
51613;DHT22;37694;51.748;14.326;2023-06-14T00:30:38;25.00;42.30
51613;DHT22;37694;51.748;14.326;2023-06-14T00:33:04;25.00;42.30
51613;DHT22;37694;51.748;14.326;2023-06-14T00:35:30;25.10;42.30
51613;DHT22;37694;51.748;14.326;2023-06-14T00:37:55;25.00;42.30
51613;DHT22;37694;51.748;14.326;2023-06-14T00:40:21;25.00;42.20
51613;DHT22;37694;51.748;14.326;2023-06-14T00:42:47;25.10;42.30
51613;DHT22;37694;51.748;14.326;2023-06-14T00:45:13;25.00;42.30
51613;DHT22;37694;51.748;14.326;2023-06-14T00:47:41;25.00;42.30
51613;DHT22;37694;51.748;14.326;2023-06-14T00:50:09;25.00;42.30
51613;DHT22;37694;51.748;14.326;2023-06-14T00:52:35;25.00;42.30
51613;DHT22;37694;51.748;14.326;2023-06-14T00:55:02;25.00;42.30
51613;DHT22;37694;51.748;14.326;2023-06-14T00:57:28;25.00;42.50
51613;DHT22;37694;51.748;14.326;2023-06-14T00:59:55;25.00;42.50
51613;DHT22;37694;51.748;14.326;2023-06-14T01:02:21;25.00;42.50
51613;DHT22;37694;51.748;14.326;2023-06-14T01:04:48;25.00;42.40
51613;DHT22;37694;51.748;14.326;2023-06-14T01:07:48;25.00;42.50
51613;DHT22;37694;51.748;14.326;2023-06-14T01:15:45;25.00;42.80
51613;DHT22;37694;51.748;14.326;2023-06-14T01:18:11;25.00;43.10
51613;DHT22;37694;51.748;14.326;2023-06-14T01:20:43;25.00;43.00
51613;DHT22;37694;51.748;14.326;2023-06-14T01:23:10;25.00;43.00
51613;DHT22;37694;51.748;14.326;2023-06-14T01:25:40;25.00;42.90
51613;DHT22;37694;51.748;14.326;2023-06-14T01:28:10;25.00;43.20
51613;DHT22;37694;51.748;14.326;2023-06-14T01:30:41;25.00;43.20
51613;DHT22;37694;51.748;14.326;2023-06-14T01:33:21;25.00;43.10
51613;DHT22;37694;51.748;14.326;2023-06-14T01:35:49;25.00;43.20
51613;DHT22;37694;51.748;14.326;2023-06-14T01:38:20;25.00;43.10
51613;DHT22;37694;51.748;14.326;2023-06-14T01:40:47;25.00;43.10
51613;DHT22;37694;51.748;14.326;2023-06-14T01:43:15;25.00;43.90
51613;DHT22;37694;51.748;14.326;2023-06-14T01:45:42;25.00;43.30
51613;DHT22;37694;51.748;14.326;2023-06-14T01:48:09;25.00;43.40
51613;DHT22;37694;51.748;14.326;2023-06-14T01:50:35;25.00;43.40
51613;DHT22;37694;51.748;14.326;2023-06-14T01:53:01;25.00;43.30
51613;DHT22;37694;51.748;14.326;2023-06-14T01:55:27;25.00;43.30
51613;DHT22;37694;51.748;14.326;2023-06-14T01:57:53;25.00;43.30
51613;DHT22;37694;51.748;14.326;2023-06-14T02:00:20;25.00;43.20
51613;DHT22;37694;51.748;14.326;2023-06-14T02:02:47;25.00;43.30
51613;DHT22;37694;51.748;14.326;2023-06-14T02:05:12;25.00;43.20
51613;DHT22;37694;51.748;14.326;2023-06-14T02:07:38;25.10;43.30
51613;DHT22;37694;51.748;14.326;2023-06-14T02:10:04;25.00;43.20
51613;DHT22;37694;51.748;14.326;2023-06-14T02:12:30;25.10;43.30
51613;DHT22;37694;51.748;14.326;2023-06-14T02:14:56;25.00;43.30
51613;DHT22;37694;51.748;14.326;2023-06-14T02:17:22;25.10;43.40
51613;DHT22;37694;51.748;14.326;2023-06-14T02:19:48;25.10;43.40
51613;DHT22;37694;51.748;14.326;2023-06-14T02:22:15;25.10;43.30
51613;DHT22;37694;51.748;14.326;2023-06-14T02:24:41;25.10;43.40
51613;DHT22;37694;51.748;14.326;2023-06-14T02:27:07;25.10;43.30
51613;DHT22;37694;51.748;14.326;2023-06-14T02:29:35;25.10;43.40
51613;DHT22;37694;51.748;14.326;2023-06-14T02:32:01;25.10;43.40
51613;DHT22;37694;51.748;14.326;2023-06-14T02:34:27;25.10;43.40
51613;DHT22;37694;51.748;14.326;2023-06-14T02:36:53;25.10;43.40
51613;DHT22;37694;51.748;14.326;2023-06-14T02:39:18;25.00;43.50
51613;DHT22;37694;51.748;14.326;2023-06-14T02:41:46;25.00;43.40
51613;DHT22;37694;51.748;14.326;2023-06-14T02:44:13;25.00;43.30
51613;DHT22;37694;51.748;14.326;2023-06-14T02:46:39;25.00;43.50
51613;DHT22;37694;51.748;14.326;2023-06-14T02:49:05;25.00;43.50
51613;DHT22;37694;51.748;14.326;2023-06-14T02:51:31;25.00;43.40
51613;DHT22;37694;51.748;14.326;2023-06-14T02:53:56;25.00;43.40
51613;DHT22;37694;51.748;14.326;2023-06-14T02:56:22;25.00;43.50
51613;DHT22;37694;51.748;14.326;2023-06-14T02:58:48;25.00;43.50
51613;DHT22;37694;51.748;14.326;2023-06-14T03:01:14;25.00;43.40
51613;DHT22;37694;51.748;14.326;2023-06-14T03:03:40;25.00;43.70
51613;DHT22;37694;51.748;14.326;2023-06-14T03:06:06;25.00;43.60
51613;DHT22;37694;51.748;14.326;2023-06-14T03:08:33;25.00;43.60
51613;DHT22;37694;51.748;14.326;2023-06-14T03:11:04;25.00;43.70
51613;DHT22;37694;51.748;14.326;2023-06-14T03:13:36;25.00;43.60
51613;DHT22;37694;51.748;14.326;2023-06-14T03:16:03;25.00;43.70
51613;DHT22;37694;51.748;14.326;2023-06-14T03:18:31;25.00;43.90
51613;DHT22;37694;51.748;14.326;2023-06-14T03:21:03;25.00;43.70
51613;DHT22;37694;51.748;14.326;2023-06-14T03:23:29;25.00;43.70
51613;DHT22;37694;51.748;14.326;2023-06-14T03:25:55;25.00;43.70
51613;DHT22;37694;51.748;14.326;2023-06-14T03:28:21;25.00;43.90
51613;DHT22;37694;51.748;14.326;2023-06-14T03:30:47;25.00;43.70
51613;DHT22;37694;51.748;14.326;2023-06-14T03:33:12;25.00;43.60
51613;DHT22;37694;51.748;14.326;2023-06-14T03:35:38;25.00;43.70
51613;DHT22;37694;51.748;14.326;2023-06-14T03:38:04;25.00;43.70
51613;DHT22;37694;51.748;14.326;2023-06-14T03:40:29;25.00;43.70
51613;DHT22;37694;51.748;14.326;2023-06-14T03:42:55;25.00;43.80
51613;DHT22;37694;51.748;14.326;2023-06-14T03:45:21;25.00;43.90
51613;DHT22;37694;51.748;14.326;2023-06-14T03:47:47;25.00;43.90
51613;DHT22;37694;51.748;14.326;2023-06-14T03:50:13;25.00;43.80
51613;DHT22;37694;51.748;14.326;2023-06-14T03:52:39;25.00;43.70
51613;DHT22;37694;51.748;14.326;2023-06-14T03:55:08;25.00;43.80
51613;DHT22;37694;51.748;14.326;2023-06-14T03:57:34;25.00;43.80
51613;DHT22;37694;51.748;14.326;2023-06-14T03:59:59;25.00;43.80
51613;DHT22;37694;51.748;14.326;2023-06-14T04:02:25;25.00;43.70
51613;DHT22;37694;51.748;14.326;2023-06-14T04:04:54;25.10;43.80
51613;DHT22;37694;51.748;14.326;2023-06-14T04:07:20;25.10;43.80
51613;DHT22;37694;51.748;14.326;2023-06-14T04:09:46;25.10;43.80
51613;DHT22;37694;51.748;14.326;2023-06-14T04:12:12;25.10;43.80
51613;DHT22;37694;51.748;14.326;2023-06-14T04:14:39;25.10;43.70
51613;DHT22;37694;51.748;14.326;2023-06-14T04:17:05;25.10;43.80
51613;DHT22;37694;51.748;14.326;2023-06-14T04:19:31;25.10;43.70
51613;DHT22;37694;51.748;14.326;2023-06-14T04:21:58;25.10;43.70
51613;DHT22;37694;51.748;14.326;2023-06-14T04:24:26;25.10;43.80
51613;DHT22;37694;51.748;14.326;2023-06-14T04:26:58;25.10;43.80
51613;DHT22;37694;51.748;14.326;2023-06-14T04:29:24;25.10;43.70
51613;DHT22;37694;51.748;14.326;2023-06-14T04:31:53;25.10;43.70
51613;DHT22;37694;51.748;14.326;2023-06-14T04:34:19;25.10;43.70
51613;DHT22;37694;51.748;14.326;2023-06-14T04:36:44;25.10;43.70
51613;DHT22;37694;51.748;14.326;2023-06-14T04:39:20;25.10;43.70
51613;DHT22;37694;51.748;14.326;2023-06-14T04:41:49;25.10;43.70
51613;DHT22;37694;51.748;14.326;2023-06-14T04:44:25;25.10;43.70
51613;DHT22;37694;51.748;14.326;2023-06-14T04:46:59;25.10;43.70
51613;DHT22;37694;51.748;14.326;2023-06-14T04:49:25;25.10;43.70
51613;DHT22;37694;51.748;14.326;2023-06-14T04:51:52;25.10;43.60
51613;DHT22;37694;51.748;14.326;2023-06-14T04:54:23;25.10;43.70
51613;DHT22;37694;51.748;14.326;2023-06-14T04:56:51;25.10;43.70
51613;DHT22;37694;51.748;14.326;2023-06-14T04:59:17;25.10;43.60
51613;DHT22;37694;51.748;14.326;2023-06-14T05:01:45;25.10;43.70
51613;DHT22;37694;51.748;14.326;2023-06-14T05:04:14;25.10;43.70
51613;DHT22;37694;51.748;14.326;2023-06-14T05:06:44;25.10;43.70
51613;DHT22;37694;51.748;14.326;2023-06-14T05:09:15;25.10;43.70
51613;DHT22;37694;51.748;14.326;2023-06-14T05:11:42;25.10;43.70
51613;DHT22;37694;51.748;14.326;2023-06-14T05:14:13;25.10;43.70
51613;DHT22;37694;51.748;14.326;2023-06-14T05:16:38;25.10;43.70
51613;DHT22;37694;51.748;14.326;2023-06-14T05:19:04;25.10;43.70
51613;DHT22;37694;51.748;14.326;2023-06-14T05:21:31;25.20;43.70
51613;DHT22;37694;51.748;14.326;2023-06-14T05:23:59;25.10;43.70
51613;DHT22;37694;51.748;14.326;2023-06-14T05:26:24;25.10;43.70
51613;DHT22;37694;51.748;14.326;2023-06-14T05:28:54;25.10;43.70
51613;DHT22;37694;51.748;14.326;2023-06-14T05:31:22;25.10;43.70
51613;DHT22;37694;51.748;14.326;2023-06-14T05:33:48;25.10;44.10
51613;DHT22;37694;51.748;14.326;2023-06-14T05:36:14;25.10;44.20
51613;DHT22;37694;51.748;14.326;2023-06-14T05:38:39;25.10;44.40
51613;DHT22;37694;51.748;14.326;2023-06-14T05:41:05;25.20;45.40
51613;DHT22;37694;51.748;14.326;2023-06-14T05:43:31;25.10;44.70
51613;DHT22;37694;51.748;14.326;2023-06-14T05:45:57;25.10;44.70
51613;DHT22;37694;51.748;14.326;2023-06-14T05:48:23;25.20;44.90
51613;DHT22;37694;51.748;14.326;2023-06-14T05:50:48;25.20;44.90
51613;DHT22;37694;51.748;14.326;2023-06-14T05:53:14;25.20;45.80
51613;DHT22;37694;51.748;14.326;2023-06-14T05:55:39;25.20;45.60
51613;DHT22;37694;51.748;14.326;2023-06-14T05:58:05;25.20;45.70
51613;DHT22;37694;51.748;14.326;2023-06-14T06:00:31;25.20;45.60
51613;DHT22;37694;51.748;14.326;2023-06-14T06:02:57;25.20;45.80
51613;DHT22;37694;51.748;14.326;2023-06-14T06:05:23;25.20;45.90
51613;DHT22;37694;51.748;14.326;2023-06-14T06:07:49;25.20;45.80
51613;DHT22;37694;51.748;14.326;2023-06-14T06:10:15;25.20;46.00
51613;DHT22;37694;51.748;14.326;2023-06-14T06:12:43;25.20;46.20
51613;DHT22;37694;51.748;14.326;2023-06-14T06:15:10;25.20;46.10
51613;DHT22;37694;51.748;14.326;2023-06-14T06:17:39;25.20;47.10
51613;DHT22;37694;51.748;14.326;2023-06-14T06:20:05;25.20;46.30
51613;DHT22;37694;51.748;14.326;2023-06-14T06:22:36;25.20;46.40
51613;DHT22;37694;51.748;14.326;2023-06-14T06:25:02;25.20;46.30
51613;DHT22;37694;51.748;14.326;2023-06-14T06:27:28;25.20;46.50
51613;DHT22;37694;51.748;14.326;2023-06-14T06:29:54;25.20;46.50
51613;DHT22;37694;51.748;14.326;2023-06-14T06:32:19;25.20;46.80
51613;DHT22;37694;51.748;14.326;2023-06-14T06:34:45;25.20;46.40
51613;DHT22;37694;51.748;14.326;2023-06-14T06:37:11;25.20;46.50
51613;DHT22;37694;51.748;14.326;2023-06-14T06:39:37;25.20;46.90
51613;DHT22;37694;51.748;14.326;2023-06-14T06:42:03;25.20;46.80
51613;DHT22;37694;51.748;14.326;2023-06-14T06:44:28;25.20;47.00
51613;DHT22;37694;51.748;14.326;2023-06-14T06:46:54;25.20;46.70
51613;DHT22;37694;51.748;14.326;2023-06-14T06:49:20;25.20;46.50
51613;DHT22;37694;51.748;14.326;2023-06-14T06:52:00;25.20;46.60
51613;DHT22;37694;51.748;14.326;2023-06-14T06:54:26;25.30;46.60
51613;DHT22;37694;51.748;14.326;2023-06-14T06:56:52;25.20;46.70
51613;DHT22;37694;51.748;14.326;2023-06-14T06:59:17;25.20;46.70
51613;DHT22;37694;51.748;14.326;2023-06-14T07:01:43;25.20;46.40
51613;DHT22;37694;51.748;14.326;2023-06-14T07:04:09;25.20;46.30
51613;DHT22;37694;51.748;14.326;2023-06-14T07:06:34;25.30;46.30
51613;DHT22;37694;51.748;14.326;2023-06-14T07:09:00;25.30;46.40
51613;DHT22;37694;51.748;14.326;2023-06-14T07:11:27;25.30;46.20
51613;DHT22;37694;51.748;14.326;2023-06-14T07:13:53;25.30;46.20
51613;DHT22;37694;51.748;14.326;2023-06-14T07:16:18;25.30;46.20
51613;DHT22;37694;51.748;14.326;2023-06-14T07:18:44;25.30;46.20
51613;DHT22;37694;51.748;14.326;2023-06-14T07:21:10;25.30;46.00
51613;DHT22;37694;51.748;14.326;2023-06-14T07:23:37;25.20;46.00
51613;DHT22;37694;51.748;14.326;2023-06-14T07:26:02;25.30;46.00
51613;DHT22;37694;51.748;14.326;2023-06-14T07:28:28;25.30;46.00
51613;DHT22;37694;51.748;14.326;2023-06-14T07:30:54;25.30;46.10
51613;DHT22;37694;51.748;14.326;2023-06-14T07:33:20;25.30;46.00
51613;DHT22;37694;51.748;14.326;2023-06-14T07:35:45;25.30;45.90
51613;DHT22;37694;51.748;14.326;2023-06-14T07:38:11;25.30;45.90
51613;DHT22;37694;51.748;14.326;2023-06-14T07:40:37;25.30;45.80
51613;DHT22;37694;51.748;14.326;2023-06-14T07:43:03;25.30;45.80
51613;DHT22;37694;51.748;14.326;2023-06-14T07:45:28;25.30;45.70
51613;DHT22;37694;51.748;14.326;2023-06-14T07:47:54;25.30;45.80
51613;DHT22;37694;51.748;14.326;2023-06-14T07:50:20;25.30;45.70
51613;DHT22;37694;51.748;14.326;2023-06-14T07:52:46;25.30;45.60
51613;DHT22;37694;51.748;14.326;2023-06-14T07:55:13;25.30;45.60
51613;DHT22;37694;51.748;14.326;2023-06-14T07:57:40;25.30;45.60
51613;DHT22;37694;51.748;14.326;2023-06-14T08:00:06;25.30;45.50
51613;DHT22;37694;51.748;14.326;2023-06-14T08:02:32;25.30;45.60
51613;DHT22;37694;51.748;14.326;2023-06-14T08:04:58;25.30;45.50
51613;DHT22;37694;51.748;14.326;2023-06-14T08:07:24;25.40;45.60
51613;DHT22;37694;51.748;14.326;2023-06-14T08:09:50;25.40;45.50
51613;DHT22;37694;51.748;14.326;2023-06-14T08:12:15;25.40;45.50
51613;DHT22;37694;51.748;14.326;2023-06-14T08:14:42;25.40;45.50
51613;DHT22;37694;51.748;14.326;2023-06-14T08:17:08;25.40;45.30
51613;DHT22;37694;51.748;14.326;2023-06-14T08:19:33;25.40;45.40
51613;DHT22;37694;51.748;14.326;2023-06-14T08:21:59;25.40;45.40
51613;DHT22;37694;51.748;14.326;2023-06-14T08:24:25;25.40;45.40
51613;DHT22;37694;51.748;14.326;2023-06-14T08:26:54;25.40;45.30
51613;DHT22;37694;51.748;14.326;2023-06-14T08:29:19;25.40;45.20
51613;DHT22;37694;51.748;14.326;2023-06-14T08:31:46;25.40;45.20
51613;DHT22;37694;51.748;14.326;2023-06-14T08:34:12;25.40;45.20
51613;DHT22;37694;51.748;14.326;2023-06-14T08:36:37;25.40;45.10
51613;DHT22;37694;51.748;14.326;2023-06-14T08:39:03;25.50;45.20
51613;DHT22;37694;51.748;14.326;2023-06-14T08:41:29;25.50;45.20
51613;DHT22;37694;51.748;14.326;2023-06-14T08:43:56;25.50;45.10
51613;DHT22;37694;51.748;14.326;2023-06-14T08:46:23;25.50;45.10
51613;DHT22;37694;51.748;14.326;2023-06-14T08:48:51;25.50;45.10
51613;DHT22;37694;51.748;14.326;2023-06-14T08:51:22;25.50;45.10
51613;DHT22;37694;51.748;14.326;2023-06-14T08:53:53;25.50;45.10
51613;DHT22;37694;51.748;14.326;2023-06-14T08:56:26;25.50;45.00
51613;DHT22;37694;51.748;14.326;2023-06-14T08:58:53;25.50;45.10
51613;DHT22;37694;51.748;14.326;2023-06-14T09:01:20;25.50;45.00
51613;DHT22;37694;51.748;14.326;2023-06-14T09:03:48;25.50;45.00
51613;DHT22;37694;51.748;14.326;2023-06-14T09:06:14;25.50;45.00
51613;DHT22;37694;51.748;14.326;2023-06-14T09:08:43;25.50;45.00
51613;DHT22;37694;51.748;14.326;2023-06-14T09:11:13;25.50;44.90
51613;DHT22;37694;51.748;14.326;2023-06-14T09:13:40;25.50;44.90
51613;DHT22;37694;51.748;14.326;2023-06-14T09:16:07;25.50;44.90
51613;DHT22;37694;51.748;14.326;2023-06-14T09:18:39;25.50;44.90
51613;DHT22;37694;51.748;14.326;2023-06-14T09:21:09;25.50;44.90
51613;DHT22;37694;51.748;14.326;2023-06-14T09:23:45;25.50;45.00
51613;DHT22;37694;51.748;14.326;2023-06-14T09:26:11;25.50;44.90
51613;DHT22;37694;51.748;14.326;2023-06-14T09:28:45;25.50;44.90
51613;DHT22;37694;51.748;14.326;2023-06-14T09:31:16;25.50;44.80
51613;DHT22;37694;51.748;14.326;2023-06-14T09:33:43;25.50;44.80
51613;DHT22;37694;51.748;14.326;2023-06-14T09:36:17;25.50;44.70
51613;DHT22;37694;51.748;14.326;2023-06-14T09:39:00;25.50;44.70
51613;DHT22;37694;51.748;14.326;2023-06-14T09:44:00;25.50;44.70
51613;DHT22;37694;51.748;14.326;2023-06-14T09:46:28;25.50;44.70
51613;DHT22;37694;51.748;14.326;2023-06-14T09:49:00;25.50;44.60
51613;DHT22;37694;51.748;14.326;2023-06-14T09:51:27;25.50;44.60
51613;DHT22;37694;51.748;14.326;2023-06-14T09:54:01;25.50;44.60
51613;DHT22;37694;51.748;14.326;2023-06-14T09:56:41;25.50;44.50
51613;DHT22;37694;51.748;14.326;2023-06-14T09:59:10;25.50;44.50
51613;DHT22;37694;51.748;14.326;2023-06-14T10:01:41;25.50;44.60
51613;DHT22;37694;51.748;14.326;2023-06-14T10:04:07;25.50;44.50
51613;DHT22;37694;51.748;14.326;2023-06-14T10:06:36;25.50;44.50
51613;DHT22;37694;51.748;14.326;2023-06-14T10:09:04;25.50;44.50
51613;DHT22;37694;51.748;14.326;2023-06-14T10:11:34;25.50;44.50
51613;DHT22;37694;51.748;14.326;2023-06-14T10:14:02;25.50;44.40
51613;DHT22;37694;51.748;14.326;2023-06-14T10:16:42;25.50;44.40
51613;DHT22;37694;51.748;14.326;2023-06-14T10:19:13;25.50;44.40
51613;DHT22;37694;51.748;14.326;2023-06-14T10:22:47;25.50;44.40
51613;DHT22;37694;51.748;14.326;2023-06-14T10:24:44;25.50;44.40
51613;DHT22;37694;51.748;14.326;2023-06-14T10:27:13;25.50;44.50
51613;DHT22;37694;51.748;14.326;2023-06-14T10:32:24;25.50;44.40
51613;DHT22;37694;51.748;14.326;2023-06-14T10:35:00;25.50;44.40
51613;DHT22;37694;51.748;14.326;2023-06-14T10:37:26;25.50;44.30
51613;DHT22;37694;51.748;14.326;2023-06-14T10:39:51;25.50;44.30
51613;DHT22;37694;51.748;14.326;2023-06-14T10:42:18;25.50;44.30
51613;DHT22;37694;51.748;14.326;2023-06-14T10:44:54;25.50;44.30
51613;DHT22;37694;51.748;14.326;2023-06-14T10:47:27;25.50;44.30
51613;DHT22;37694;51.748;14.326;2023-06-14T10:52:24;25.50;44.20
51613;DHT22;37694;51.748;14.326;2023-06-14T10:57:26;25.50;44.20
51613;DHT22;37694;51.748;14.326;2023-06-14T10:59:52;25.50;44.20
51613;DHT22;37694;51.748;14.326;2023-06-14T11:02:35;25.50;44.10
51613;DHT22;37694;51.748;14.326;2023-06-14T11:05:08;25.60;44.30
51613;DHT22;37694;51.748;14.326;2023-06-14T11:10:38;25.50;44.10
51613;DHT22;37694;51.748;14.326;2023-06-14T11:13:04;25.60;44.20
51613;DHT22;37694;51.748;14.326;2023-06-14T11:15:34;25.50;44.20
51613;DHT22;37694;51.748;14.326;2023-06-14T11:18:01;25.60;44.10
51613;DHT22;37694;51.748;14.326;2023-06-14T11:20:30;25.60;44.20
51613;DHT22;37694;51.748;14.326;2023-06-14T11:22:56;25.60;44.20
51613;DHT22;37694;51.748;14.326;2023-06-14T11:25:22;25.60;44.20
51613;DHT22;37694;51.748;14.326;2023-06-14T11:27:50;25.60;44.10
51613;DHT22;37694;51.748;14.326;2023-06-14T11:30:16;25.60;44.10
51613;DHT22;37694;51.748;14.326;2023-06-14T11:32:42;25.60;44.10
51613;DHT22;37694;51.748;14.326;2023-06-14T11:35:08;25.60;44.10
51613;DHT22;37694;51.748;14.326;2023-06-14T11:37:36;25.60;44.10
51613;DHT22;37694;51.748;14.326;2023-06-14T11:40:03;25.60;44.00
51613;DHT22;37694;51.748;14.326;2023-06-14T11:42:36;25.60;44.00
51613;DHT22;37694;51.748;14.326;2023-06-14T11:45:03;25.60;44.00
51613;DHT22;37694;51.748;14.326;2023-06-14T11:47:34;25.60;44.00
51613;DHT22;37694;51.748;14.326;2023-06-14T11:50:01;25.60;44.00
51613;DHT22;37694;51.748;14.326;2023-06-14T11:52:27;25.60;44.00
51613;DHT22;37694;51.748;14.326;2023-06-14T11:54:54;25.60;44.00
51613;DHT22;37694;51.748;14.326;2023-06-14T11:57:20;25.70;44.00
51613;DHT22;37694;51.748;14.326;2023-06-14T11:59:46;25.60;44.00
51613;DHT22;37694;51.748;14.326;2023-06-14T12:02:21;25.70;43.90
51613;DHT22;37694;51.748;14.326;2023-06-14T12:04:47;25.70;43.90
51613;DHT22;37694;51.748;14.326;2023-06-14T12:07:17;25.70;43.80
51613;DHT22;37694;51.748;14.326;2023-06-14T12:12:23;25.80;43.70
51613;DHT22;37694;51.748;14.326;2023-06-14T12:14:51;25.80;43.60
51613;DHT22;37694;51.748;14.326;2023-06-14T12:17:17;25.80;43.60
51613;DHT22;37694;51.748;14.326;2023-06-14T12:19:44;25.90;43.60
51613;DHT22;37694;51.748;14.326;2023-06-14T12:22:11;25.90;43.60
51613;DHT22;37694;51.748;14.326;2023-06-14T12:24:36;25.90;43.60
51613;DHT22;37694;51.748;14.326;2023-06-14T12:27:03;25.90;43.50
51613;DHT22;37694;51.748;14.326;2023-06-14T12:29:30;26.00;44.30
51613;DHT22;37694;51.748;14.326;2023-06-14T12:31:56;26.00;43.50
51613;DHT22;37694;51.748;14.326;2023-06-14T12:34:26;26.00;43.40
51613;DHT22;37694;51.748;14.326;2023-06-14T12:36:53;26.00;43.40
51613;DHT22;37694;51.748;14.326;2023-06-14T12:39:19;26.00;43.40
51613;DHT22;37694;51.748;14.326;2023-06-14T12:41:45;26.00;43.40
51613;DHT22;37694;51.748;14.326;2023-06-14T12:44:11;26.00;44.20
51613;DHT22;37694;51.748;14.326;2023-06-14T12:46:37;26.00;43.30
51613;DHT22;37694;51.748;14.326;2023-06-14T12:49:05;26.00;43.20
51613;DHT22;37694;51.748;14.326;2023-06-14T12:51:32;26.10;43.40
51613;DHT22;37694;51.748;14.326;2023-06-14T12:53:58;26.10;43.30
51613;DHT22;37694;51.748;14.326;2023-06-14T12:56:23;26.00;43.20
51613;DHT22;37694;51.748;14.326;2023-06-14T12:58:49;26.10;43.20
51613;DHT22;37694;51.748;14.326;2023-06-14T13:01:15;26.10;43.20
51613;DHT22;37694;51.748;14.326;2023-06-14T13:03:40;26.10;43.50
51613;DHT22;37694;51.748;14.326;2023-06-14T13:06:06;25.70;41.90
51613;DHT22;37694;51.748;14.326;2023-06-14T13:08:31;25.20;42.60
51613;DHT22;37694;51.748;14.326;2023-06-14T13:10:57;24.80;45.30
51613;DHT22;37694;51.748;14.326;2023-06-14T13:13:23;24.70;46.90
51613;DHT22;37694;51.748;14.326;2023-06-14T13:15:49;24.70;47.70
51613;DHT22;37694;51.748;14.326;2023-06-14T13:18:16;24.60;46.70
51613;DHT22;37694;51.748;14.326;2023-06-14T13:20:42;24.50;46.10
51613;DHT22;37694;51.748;14.326;2023-06-14T13:23:08;24.30;45.70
51613;DHT22;37694;51.748;14.326;2023-06-14T13:25:36;24.20;46.50
51613;DHT22;37694;51.748;14.326;2023-06-14T13:28:03;24.20;47.10
51613;DHT22;37694;51.748;14.326;2023-06-14T13:30:29;24.10;47.10
51613;DHT22;37694;51.748;14.326;2023-06-14T13:32:55;24.10;47.50
51613;DHT22;37694;51.748;14.326;2023-06-14T13:35:21;24.10;47.80
51613;DHT22;37694;51.748;14.326;2023-06-14T13:37:47;24.10;48.10
51613;DHT22;37694;51.748;14.326;2023-06-14T13:40:13;24.10;48.30
51613;DHT22;37694;51.748;14.326;2023-06-14T13:42:39;24.10;48.30
51613;DHT22;37694;51.748;14.326;2023-06-14T13:45:06;24.10;48.30
51613;DHT22;37694;51.748;14.326;2023-06-14T13:47:32;24.10;48.30
51613;DHT22;37694;51.748;14.326;2023-06-14T13:49:57;24.10;48.10
51613;DHT22;37694;51.748;14.326;2023-06-14T13:52:24;24.10;48.20
51613;DHT22;37694;51.748;14.326;2023-06-14T13:54:49;24.10;47.60
51613;DHT22;37694;51.748;14.326;2023-06-14T13:57:16;24.00;48.10
51613;DHT22;37694;51.748;14.326;2023-06-14T13:59:42;24.00;48.10
51613;DHT22;37694;51.748;14.326;2023-06-14T14:02:10;24.00;48.10
51613;DHT22;37694;51.748;14.326;2023-06-14T14:04:36;24.00;48.10
51613;DHT22;37694;51.748;14.326;2023-06-14T14:07:03;24.00;48.10
51613;DHT22;37694;51.748;14.326;2023-06-14T14:09:29;24.00;48.10
51613;DHT22;37694;51.748;14.326;2023-06-14T14:11:54;24.00;48.10
51613;DHT22;37694;51.748;14.326;2023-06-14T14:14:21;24.00;48.10
51613;DHT22;37694;51.748;14.326;2023-06-14T14:16:46;24.00;48.20
51613;DHT22;37694;51.748;14.326;2023-06-14T14:19:12;24.00;48.20
51613;DHT22;37694;51.748;14.326;2023-06-14T14:21:38;23.90;47.40
51613;DHT22;37694;51.748;14.326;2023-06-14T14:24:04;23.80;47.20
51613;DHT22;37694;51.748;14.326;2023-06-14T14:26:29;23.70;47.30
51613;DHT22;37694;51.748;14.326;2023-06-14T14:28:55;23.70;47.70
51613;DHT22;37694;51.748;14.326;2023-06-14T14:31:21;23.70;48.20
51613;DHT22;37694;51.748;14.326;2023-06-14T14:33:46;23.70;48.50
51613;DHT22;37694;51.748;14.326;2023-06-14T14:36:12;23.70;48.60
51613;DHT22;37694;51.748;14.326;2023-06-14T14:38:39;23.70;48.70
51613;DHT22;37694;51.748;14.326;2023-06-14T14:41:05;23.70;49.00
51613;DHT22;37694;51.748;14.326;2023-06-14T14:43:30;23.70;49.00
51613;DHT22;37694;51.748;14.326;2023-06-14T14:45:57;23.70;48.90
51613;DHT22;37694;51.748;14.326;2023-06-14T14:48:23;23.70;48.80
51613;DHT22;37694;51.748;14.326;2023-06-14T14:50:48;23.70;49.70
51613;DHT22;37694;51.748;14.326;2023-06-14T14:53:14;23.70;48.90
51613;DHT22;37694;51.748;14.326;2023-06-14T14:55:42;23.60;49.00
51613;DHT22;37694;51.748;14.326;2023-06-14T14:58:08;23.60;49.00
51613;DHT22;37694;51.748;14.326;2023-06-14T15:00:34;23.70;49.00
51613;DHT22;37694;51.748;14.326;2023-06-14T15:03:00;23.60;49.00
51613;DHT22;37694;51.748;14.326;2023-06-14T15:05:26;23.60;49.00
51613;DHT22;37694;51.748;14.326;2023-06-14T15:07:52;23.60;49.10
51613;DHT22;37694;51.748;14.326;2023-06-14T15:10:18;23.60;49.10
51613;DHT22;37694;51.748;14.326;2023-06-14T15:12:43;23.60;49.10
51613;DHT22;37694;51.748;14.326;2023-06-14T15:15:09;23.60;49.10
51613;DHT22;37694;51.748;14.326;2023-06-14T15:17:35;23.60;49.10
51613;DHT22;37694;51.748;14.326;2023-06-14T15:20:01;23.60;49.20
51613;DHT22;37694;51.748;14.326;2023-06-14T15:22:28;23.60;49.10
51613;DHT22;37694;51.748;14.326;2023-06-14T15:24:53;23.60;49.00
51613;DHT22;37694;51.748;14.326;2023-06-14T15:27:19;23.60;49.20
51613;DHT22;37694;51.748;14.326;2023-06-14T15:29:46;23.60;49.10
51613;DHT22;37694;51.748;14.326;2023-06-14T15:32:12;23.60;49.00
51613;DHT22;37694;51.748;14.326;2023-06-14T15:34:38;23.60;49.00
51613;DHT22;37694;51.748;14.326;2023-06-14T15:37:05;23.60;49.00